Time;durP1;ratioP1;P1;durP2;ratioP2;P2;SDS_P1;SDS_P2;PMS_P1;PMS_P2;Temp;Humidity;BMP_temperature;BMP_pressure;BME280_temperature;BME280_humidity;BME280_pressure;Samples;Min_cycle;Max_cycle;Signal;HPM_P1;HPM_P2
2022/09/18 00:01:46;;;;;;;4.82;1.08;;;;;;;;;;5028301;28;20046;-67
2022/09/18 00:04:17;;;;;;;7.00;1.60;;;;;;;;;;4996136;28;20061;-68
2022/09/18 00:06:47;;;;;;;1.75;0.68;;;;;;;;;;5008688;28;20049;-67
2022/09/18 00:09:17;;;;;;;2.30;0.77;;;;;;;;;;5008784;28;20061;-67
2022/09/18 00:11:49;;;;;;;6.65;0.68;;;;;;;;;;5030865;28;20064;-67
2022/09/18 00:14:22;;;;;;;3.17;0.70;;;;;;;;;;5048570;28;20501;-67
2022/09/18 00:16:53;;;;;;;2.95;0.68;;;;;;;;;;4999346;28;20049;-67
2022/09/18 00:19:24;;;;;;;2.92;0.60;;;;;;;;;;5016557;28;20057;-67
2022/09/18 00:21:53;;;;;;;4.30;1.23;;;;;;;;;;5028771;28;20049;-67
2022/09/18 00:24:23;;;;;;;2.60;0.45;;;;;;;;;;5029078;28;20061;-67
2022/09/18 00:26:53;;;;;;;3.00;0.52;;;;;;;;;;5012937;28;20054;-67
2022/09/18 00:29:23;;;;;;;3.25;0.70;;;;;;;;;;4979876;28;20054;-67
2022/09/18 00:31:54;;;;;;;4.22;0.73;;;;;;;;;;5012552;28;20065;-67
2022/09/18 00:34:24;;;;;;;3.15;0.70;;;;;;;;;;5045842;28;20063;-67
2022/09/18 00:36:53;;;;;;;3.42;0.98;;;;;;;;;;5048635;28;20459;-68
2022/09/18 00:39:23;;;;;;;3.10;1.05;;;;;;;;;;5028284;28;20383;-67
2022/09/18 00:41:54;;;;;;;4.07;0.73;;;;;;;;;;4989141;28;20065;-66
2022/09/18 00:44:44;;;;;;;6.45;0.82;;;;;;;;;;4989010;28;20074;-66
2022/09/18 00:47:35;;;;;;;3.95;1.00;;;;;;;;;;4989481;28;20058;-67
2022/09/18 00:50:26;;;;;;;3.15;0.60;;;;;;;;;;4989326;28;20046;-67
2022/09/18 00:53:00;;;;;;;2.42;0.75;;;;;;;;;;4989172;28;20415;-67
2022/09/18 00:55:39;;;;;;;2.00;0.73;;;;;;;;;;4989242;28;20414;-67
2022/09/18 00:58:09;;;;;;;3.60;0.80;;;;;;;;;;4989177;28;20054;-67
2022/09/18 01:00:39;;;;;;;1.80;0.63;;;;;;;;;;5010216;28;20087;-67
2022/09/18 01:03:09;;;;;;;1.65;0.50;;;;;;;;;;5028483;28;20077;-66
2022/09/18 01:06:03;;;;;;;2.60;0.77;;;;;;;;;;5011755;28;20057;-67
2022/09/18 01:09:03;;;;;;;1.27;0.43;;;;;;;;;;4931111;29;20051;-66
2022/09/18 01:11:54;;;;;;;1.60;0.50;;;;;;;;;;4934836;29;20680;-66
2022/09/18 01:14:35;;;;;;;3.00;0.70;;;;;;;;;;4934784;29;20527;-66
2022/09/18 01:17:28;;;;;;;2.65;0.40;;;;;;;;;;4954687;28;20057;-68
2022/09/18 01:20:26;;;;;;;2.60;0.73;;;;;;;;;;4859075;29;20363;-67
2022/09/18 01:23:34;;;;;;;2.33;0.80;;;;;;;;;;4877862;29;20052;-67
2022/09/18 01:26:25;;;;;;;3.15;0.80;;;;;;;;;;4840945;29;20050;-67
2022/09/18 01:29:02;;;;;;;2.47;0.77;;;;;;;;;;4841139;29;20050;-67
2022/09/18 01:32:06;;;;;;;2.40;0.60;;;;;;;;;;4810442;29;20057;-67
2022/09/18 01:35:08;;;;;;;5.43;0.88;;;;;;;;;;4822207;29;20062;-67
2022/09/18 01:38:12;;;;;;;3.13;0.77;;;;;;;;;;4822236;29;20079;-67
2022/09/18 01:40:59;;;;;;;2.03;0.63;;;;;;;;;;4786105;29;20063;-66
2022/09/18 01:43:31;;;;;;;2.35;1.00;;;;;;;;;;4772098;29;20059;-67
2022/09/18 01:46:09;;;;;;;3.15;0.52;;;;;;;;;;4793382;29;20058;-66
2022/09/18 01:48:47;;;;;;;3.17;0.55;;;;;;;;;;4786031;29;20056;-67
2022/09/18 01:51:35;;;;;;;2.00;0.70;;;;;;;;;;4789191;29;20063;-67
2022/09/18 01:54:14;;;;;;;2.20;0.93;;;;;;;;;;4804006;29;20519;-67
2022/09/18 01:56:59;;;;;;;3.15;0.68;;;;;;;;;;4809515;29;20051;-67
2022/09/18 01:59:48;;;;;;;2.45;0.85;;;;;;;;;;4882030;29;20061;-67
2022/09/18 02:02:23;;;;;;;2.33;0.63;;;;;;;;;;4877136;29;20045;-68
2022/09/18 02:04:59;;;;;;;0.93;0.47;;;;;;;;;;4914432;29;20052;-67
2022/09/18 02:07:45;;;;;;;2.78;0.50;;;;;;;;;;4867838;29;20044;-67
2022/09/18 02:10:21;;;;;;;2.20;0.50;;;;;;;;;;4895538;29;20060;-67
2022/09/18 02:12:53;;;;;;;0.77;0.32;;;;;;;;;;4895385;29;20052;-68
2022/09/18 02:15:28;;;;;;;2.65;0.43;;;;;;;;;;4903072;29;20097;-67
2022/09/18 02:18:09;;;;;;;3.60;0.60;;;;;;;;;;4914417;29;20056;-67
2022/09/18 02:20:43;;;;;;;;;;;;;;;;;;4914063;29;20052;-67
2022/09/18 02:23:13;;;;;;;1.95;0.28;;;;;;;;;;4920376;29;19929;-68
2022/09/18 02:25:52;;;;;;;5.13;0.65;;;;;;;;;;4902139;29;20070;-67
2022/09/18 02:28:25;;;;;;;2.47;0.60;;;;;;;;;;4932205;29;20554;-67
2022/09/18 02:30:57;;;;;;;2.33;0.63;;;;;;;;;;4930830;29;20071;-67
2022/09/18 02:33:31;;;;;;;1.90;0.43;;;;;;;;;;4914527;29;20440;-67
2022/09/18 02:36:14;;;;;;;1.67;0.60;;;;;;;;;;4914622;29;20560;-67
2022/09/18 02:38:49;;;;;;;3.97;0.55;;;;;;;;;;4914362;29;20056;-67
2022/09/18 02:41:56;;;;;;;2.08;0.70;;;;;;;;;;4916790;29;20122;-67
2022/09/18 02:44:45;;;;;;;4.03;0.50;;;;;;;;;;4944772;29;20048;-66
2022/09/18 02:47:43;;;;;;;1.35;0.32;;;;;;;;;;4925964;28;20057;-67
2022/09/18 02:50:32;;;;;;;3.70;0.60;;;;;;;;;;4971655;28;20062;-67
2022/09/18 02:53:24;;;;;;;1.70;0.47;;;;;;;;;;4981502;28;20058;-67
2022/09/18 02:56:05;;;;;;;2.72;0.55;;;;;;;;;;4974829;28;20054;-66
2022/09/18 02:58:44;;;;;;;2.97;0.55;;;;;;;;;;4974701;28;20573;-66
2022/09/18 03:01:16;;;;;;;0.98;0.45;;;;;;;;;;4971466;28;20043;-67
2022/09/18 03:03:46;;;;;;;2.95;0.60;;;;;;;;;;4932715;29;20099;-66
2022/09/18 03:06:19;;;;;;;2.08;0.45;;;;;;;;;;4913739;29;20048;-67
2022/09/18 03:08:49;;;;;;;2.65;0.60;;;;;;;;;;4913647;29;20524;-67
2022/09/18 03:11:19;;;;;;;2.25;0.60;;;;;;;;;;4914162;29;20060;-66
2022/09/18 03:13:49;;;;;;;4.55;0.75;;;;;;;;;;4913580;29;20056;-66
2022/09/18 03:16:20;;;;;;;1.45;0.50;;;;;;;;;;4913769;29;20408;-66
2022/09/18 03:18:50;;;;;;;5.30;0.70;;;;;;;;;;4913976;29;20060;-67
2022/09/18 03:21:20;;;;;;;1.23;0.60;;;;;;;;;;4938080;29;20415;-66
2022/09/18 03:23:51;;;;;;;4.82;0.90;;;;;;;;;;4951906;29;20070;-66
2022/09/18 03:26:27;;;;;;;2.70;0.70;;;;;;;;;;4951323;29;20062;-66
2022/09/18 03:28:58;;;;;;;1.98;0.57;;;;;;;;;;4913455;29;20552;-67
2022/09/18 03:31:29;;;;;;;3.90;0.93;;;;;;;;;;4894375;29;20056;-67
2022/09/18 03:34:02;;;;;;;1.70;0.75;;;;;;;;;;4881202;29;20053;-67
2022/09/18 03:36:33;;;;;;;3.08;0.60;;;;;;;;;;4875784;29;20049;-67
2022/09/18 03:39:04;;;;;;;1.75;0.57;;;;;;;;;;4915355;29;20059;-66
2022/09/18 03:41:35;;;;;;;1.80;0.50;;;;;;;;;;4932438;29;20056;-66
2022/09/18 03:44:07;;;;;;;3.95;0.73;;;;;;;;;;4942841;28;20455;-66
2022/09/18 03:46:40;;;;;;;1.55;0.50;;;;;;;;;;4951389;28;20055;-66
2022/09/18 03:49:11;;;;;;;0.93;0.40;;;;;;;;;;4951376;28;20070;-66
2022/09/18 03:51:42;;;;;;;1.10;0.52;;;;;;;;;;4931880;28;20086;-67
2022/09/18 03:54:13;;;;;;;1.25;0.50;;;;;;;;;;4931591;29;20048;-67
2022/09/18 03:57:01;;;;;;;1.30;0.40;;;;;;;;;;4932129;28;20060;-67
2022/09/18 03:59:55;;;;;;;3.38;0.60;;;;;;;;;;4927029;28;20407;-66
2022/09/18 04:02:43;;;;;;;2.20;0.70;;;;;;;;;;4970238;28;20099;-66
2022/09/18 04:05:32;;;;;;;3.17;0.43;;;;;;;;;;4989997;28;20058;-67
2022/09/18 04:08:35;;;;;;;3.63;0.40;;;;;;;;;;4989489;28;20069;-66
2022/09/18 04:11:16;;;;;;;1.40;0.43;;;;;;;;;;4995662;28;20058;-67
2022/09/18 04:13:47;;;;;;;1.38;0.40;;;;;;;;;;4970066;28;20427;-67
2022/09/18 04:16:18;;;;;;;4.32;0.80;;;;;;;;;;4948316;29;20070;-66
2022/09/18 04:18:48;;;;;;;3.53;0.60;;;;;;;;;;4970107;28;20498;-67
2022/09/18 04:21:18;;;;;;;1.38;0.47;;;;;;;;;;4956863;28;20058;-67
2022/09/18 04:23:49;;;;;;;1.13;0.50;;;;;;;;;;4969897;28;20058;-67
2022/09/18 04:26:19;;;;;;;2.97;0.45;;;;;;;;;;4912019;29;20700;-67
2022/09/18 04:28:55;;;;;;;1.25;0.43;;;;;;;;;;4906748;29;20063;-66
2022/09/18 04:31:25;;;;;;;1.30;0.50;;;;;;;;;;4893319;29;20485;-67
2022/09/18 04:33:57;;;;;;;3.30;0.70;;;;;;;;;;4893752;29;20049;-66
2022/09/18 04:36:27;;;;;;;1.33;0.40;;;;;;;;;;4874738;29;20071;-67
2022/09/18 04:38:57;;;;;;;5.25;0.95;;;;;;;;;;4859521;29;20061;-67
2022/09/18 04:41:28;;;;;;;2.03;0.38;;;;;;;;;;4876703;29;20405;-66
2022/09/18 04:43:58;;;;;;;2.53;0.55;;;;;;;;;;4875020;29;20053;-67
2022/09/18 04:46:29;;;;;;;4.20;0.75;;;;;;;;;;4878517;29;20549;-66
2022/09/18 04:49:00;;;;;;;2.97;0.32;;;;;;;;;;4878974;29;20088;-66
2022/09/18 04:51:32;;;;;;;4.15;0.40;;;;;;;;;;4884708;29;20068;-67
2022/09/18 04:54:02;;;;;;;1.02;0.35;;;;;;;;;;4866060;29;20062;-66
2022/09/18 04:56:36;;;;;;;2.15;0.57;;;;;;;;;;4915785;29;20044;-66
2022/09/18 04:59:06;;;;;;;2.90;0.40;;;;;;;;;;4916296;29;20060;-66
2022/09/18 05:01:40;;;;;;;0.85;0.22;;;;;;;;;;4900649;29;20052;-66
2022/09/18 05:04:12;;;;;;;;;;;;;;;;;;4927671;29;20535;-66
2022/09/18 05:06:55;;;;;;;1.33;0.40;;;;;;;;;;4934912;29;19934;-66
2022/09/18 05:09:25;;;;;;;4.55;0.68;;;;;;;;;;4915150;29;20071;-66
2022/09/18 05:11:56;;;;;;;3.17;0.40;;;;;;;;;;4938529;29;20066;-66
2022/09/18 05:14:26;;;;;;;2.22;0.40;;;;;;;;;;4929877;29;20048;-66
2022/09/18 05:17:01;;;;;;;1.75;0.90;;;;;;;;;;4911419;29;20068;-66
2022/09/18 05:19:36;;;;;;;5.78;0.60;;;;;;;;;;4919360;29;20043;-66
2022/09/18 05:22:20;;;;;;;2.70;0.60;;;;;;;;;;4929126;29;20520;-66
2022/09/18 05:24:52;;;;;;;1.50;0.50;;;;;;;;;;4904306;29;20063;-67
2022/09/18 05:27:22;;;;;;;1.88;0.35;;;;;;;;;;4896774;29;20456;-66
2022/09/18 05:29:56;;;;;;;1.73;0.43;;;;;;;;;;4881741;29;20057;-66
2022/09/18 05:32:40;;;;;;;;;;;;;;;;;;4859375;29;20061;-66
2022/09/18 05:35:10;;;;;;;3.33;0.55;;;;;;;;;;4827733;29;19924;-66
2022/09/18 05:37:43;;;;;;;1.75;0.30;;;;;;;;;;4871496;29;20118;-66
2022/09/18 05:40:14;;;;;;;2.10;0.50;;;;;;;;;;4912843;29;20056;-66
2022/09/18 05:42:47;;;;;;;4.05;0.50;;;;;;;;;;4934605;29;20051;-66
2022/09/18 05:45:19;;;;;;;6.63;0.80;;;;;;;;;;4933977;29;20101;-66
2022/09/18 05:47:56;;;;;;;2.60;0.30;;;;;;;;;;4896148;29;20052;-66
2022/09/18 05:50:29;;;;;;;1.65;0.40;;;;;;;;;;4891986;29;20627;-67
2022/09/18 05:53:11;;;;;;;3.63;0.70;;;;;;;;;;4908810;29;20044;-66
2022/09/18 05:55:51;;;;;;;2.70;1.10;;;;;;;;;;4914376;29;20053;-66
2022/09/18 05:58:21;;;;;;;2.30;0.50;;;;;;;;;;4916278;29;20385;-66
2022/09/18 06:01:00;;;;;;;1.52;0.60;;;;;;;;;;4895922;29;20068;-66
2022/09/18 06:03:49;;;;;;;1.38;0.28;;;;;;;;;;4871357;29;20054;-66
2022/09/18 06:06:22;;;;;;;4.57;0.47;;;;;;;;;;4892151;29;20049;-66
2022/09/18 06:08:52;;;;;;;3.00;0.52;;;;;;;;;;4876773;29;20088;-66
2022/09/18 06:11:25;;;;;;;4.57;0.90;;;;;;;;;;4895550;29;20060;-66
2022/09/18 06:13:55;;;;;;;3.60;0.90;;;;;;;;;;4876843;29;20049;-66
2022/09/18 06:16:25;;;;;;;4.03;0.50;;;;;;;;;;4860367;29;20094;-66
2022/09/18 06:19:02;;;;;;;1.85;0.52;;;;;;;;;;4895404;29;20060;-66
2022/09/18 06:21:33;;;;;;;1.42;0.40;;;;;;;;;;4911215;29;20067;-66
2022/09/18 06:24:07;;;;;;;1.23;0.40;;;;;;;;;;4847451;29;20528;-66
2022/09/18 06:26:48;;;;;;;3.08;0.50;;;;;;;;;;4858374;29;20178;-66
2022/09/18 06:29:20;;;;;;;4.00;1.00;;;;;;;;;;4879846;29;20064;-66
2022/09/18 06:31:59;;;;;;;2.70;0.50;;;;;;;;;;4876910;29;20107;-66
2022/09/18 06:34:29;;;;;;;1.13;0.50;;;;;;;;;;4876674;29;20065;-66
2022/09/18 06:37:11;;;;;;;2.35;0.60;;;;;;;;;;4879069;29;20056;-66
2022/09/18 06:39:42;;;;;;;3.40;0.63;;;;;;;;;;4844948;29;20052;-66
2022/09/18 06:42:24;;;;;;;6.15;0.60;;;;;;;;;;4893100;29;20053;-67
2022/09/18 06:45:25;;;;;;;1.70;0.68;;;;;;;;;;4914938;29;20052;-67
2022/09/18 06:48:05;;;;;;;2.08;0.68;;;;;;;;;;4895433;29;20528;-66
2022/09/18 06:50:37;;;;;;;2.33;0.57;;;;;;;;;;4864220;29;20069;-66
2022/09/18 06:53:08;;;;;;;3.60;0.93;;;;;;;;;;4876321;29;20057;-66
2022/09/18 06:55:51;;;;;;;2.97;0.60;;;;;;;;;;4890053;29;20089;-66
2022/09/18 06:58:22;;;;;;;1.60;0.55;;;;;;;;;;4876789;29;20410;-65
2022/09/18 07:00:54;;;;;;;2.15;0.65;;;;;;;;;;4839220;29;20550;-66
2022/09/18 07:03:29;;;;;;;2.70;0.95;;;;;;;;;;4888034;29;20477;-66
2022/09/18 07:06:21;;;;;;;2.70;0.80;;;;;;;;;;4899145;29;20063;-65
2022/09/18 07:08:53;;;;;;;1.25;0.50;;;;;;;;;;4947475;29;20409;-66
2022/09/18 07:11:41;;;;;;;3.25;0.57;;;;;;;;;;4951838;29;20051;-66
2022/09/18 07:14:11;;;;;;;2.50;0.43;;;;;;;;;;4965993;28;20047;-66
2022/09/18 07:16:41;;;;;;;2.90;0.60;;;;;;;;;;4971154;28;20065;-66
2022/09/18 07:19:13;;;;;;;3.67;0.60;;;;;;;;;;4987139;28;20743;-66
2022/09/18 07:21:43;;;;;;;1.77;0.40;;;;;;;;;;4989954;28;20086;-65
2022/09/18 07:24:13;;;;;;;0.75;0.45;;;;;;;;;;4990206;28;20054;-66
2022/09/18 07:26:43;;;;;;;1.38;0.40;;;;;;;;;;4990905;28;20046;-66
2022/09/18 07:29:14;;;;;;;2.42;0.40;;;;;;;;;;4990351;28;20058;-66
2022/09/18 07:31:44;;;;;;;1.52;0.40;;;;;;;;;;4966285;28;20518;-66
2022/09/18 07:34:14;;;;;;;0.90;0.40;;;;;;;;;;4951667;29;20055;-66
2022/09/18 07:36:48;;;;;;;3.78;0.57;;;;;;;;;;4951411;29;20063;-66
2022/09/18 07:39:18;;;;;;;2.00;0.55;;;;;;;;;;4951769;28;20063;-66
2022/09/18 07:42:07;;;;;;;1.40;0.50;;;;;;;;;;4969317;28;20411;-66
2022/09/18 07:44:40;;;;;;;0.80;0.40;;;;;;;;;;4966466;28;20435;-66
2022/09/18 07:47:11;;;;;;;0.70;0.40;;;;;;;;;;4965787;28;20070;-67
2022/09/18 07:49:42;;;;;;;1.45;0.63;;;;;;;;;;4974440;28;20050;-66
2022/09/18 07:52:13;;;;;;;1.13;0.40;;;;;;;;;;4970765;28;20467;-66
2022/09/18 07:54:47;;;;;;;3.20;0.60;;;;;;;;;;4955537;28;20054;-65
2022/09/18 07:57:26;;;;;;;0.90;0.40;;;;;;;;;;4989703;28;20050;-66
2022/09/18 08:00:27;;;;;;;1.42;0.55;;;;;;;;;;4989353;28;20058;-66
2022/09/18 08:03:05;;;;;;;2.42;0.55;;;;;;;;;;4954248;28;20055;-66
2022/09/18 08:05:54;;;;;;;0.93;0.40;;;;;;;;;;4951344;29;20055;-66
2022/09/18 08:08:24;;;;;;;1.42;0.70;;;;;;;;;;4950955;29;20051;-66
2022/09/18 08:11:13;;;;;;;1.95;0.60;;;;;;;;;;4943206;28;20054;-66
2022/09/18 08:13:56;;;;;;;0.63;0.30;;;;;;;;;;4941161;28;20557;-66
2022/09/18 08:16:29;;;;;;;2.80;0.38;;;;;;;;;;4970436;28;20055;-66
2022/09/18 08:19:22;;;;;;;0.60;0.40;;;;;;;;;;4943946;28;20050;-66
2022/09/18 08:22:00;;;;;;;1.23;0.45;;;;;;;;;;4916656;29;20420;-66
2022/09/18 08:24:32;;;;;;;2.53;0.50;;;;;;;;;;4893724;29;20524;-66
2022/09/18 08:27:03;;;;;;;2.67;0.47;;;;;;;;;;4868151;29;20054;-66
2022/09/18 08:29:33;;;;;;;2.10;0.50;;;;;;;;;;4856334;29;20054;-66
2022/09/18 08:32:06;;;;;;;1.80;0.60;;;;;;;;;;4853184;29;20061;-66
2022/09/18 08:34:38;;;;;;;2.55;0.75;;;;;;;;;;4874611;29;20053;-66
2022/09/18 08:37:11;;;;;;;0.73;0.50;;;;;;;;;;4893239;29;20044;-66
2022/09/18 08:39:59;;;;;;;2.63;0.65;;;;;;;;;;4889381;29;20061;-66
2022/09/18 08:43:02;;;;;;;1.38;0.50;;;;;;;;;;4879119;29;20405;-66
2022/09/18 08:45:48;;;;;;;1.50;0.52;;;;;;;;;;4912350;29;20060;-66
2022/09/18 08:48:20;;;;;;;;;;;;;;;;;;4928777;29;20079;-66
2022/09/18 08:51:06;;;;;;;1.65;0.70;;;;;;;;;;4912219;29;20303;-67
2022/09/18 08:53:41;;;;;;;1.75;0.57;;;;;;;;;;4912615;29;20048;-66
2022/09/18 08:56:52;;;;;;;1.05;0.50;;;;;;;;;;4893845;29;20053;-66
2022/09/18 08:59:46;;;;;;;2.22;0.60;;;;;;;;;;4864411;29;21051;-66
2022/09/18 09:02:27;;;;;;;1.00;0.43;;;;;;;;;;4915089;29;20060;-66
2022/09/18 09:05:01;;;;;;;1.00;0.45;;;;;;;;;;4904122;29;20070;-66
2022/09/18 09:07:51;;;;;;;2.88;0.68;;;;;;;;;;4912327;29;20052;-66
2022/09/18 09:10:37;;;;;;;0.88;0.50;;;;;;;;;;4925854;29;20048;-66
2022/09/18 09:13:54;;;;;;;2.33;0.63;;;;;;;;;;4933149;28;20407;-66
2022/09/18 09:16:40;;;;;;;2.55;0.50;;;;;;;;;;4912034;29;20525;-66
2022/09/18 09:19:26;;;;;;;1.50;0.60;;;;;;;;;;4893060;29;20714;-66
2022/09/18 09:22:19;;;;;;;2.80;1.00;;;;;;;;;;4874084;29;20071;-66
2022/09/18 09:25:04;;;;;;;1.80;0.75;;;;;;;;;;4874614;29;20060;-66
2022/09/18 09:28:22;;;;;;;2.67;0.50;;;;;;;;;;4874585;29;20549;-66
2022/09/18 09:31:15;;;;;;;2.03;0.77;;;;;;;;;;4876327;29;20053;-66
2022/09/18 09:34:29;;;;;;;3.25;0.90;;;;;;;;;;4915434;29;20049;-66
2022/09/18 09:37:40;;;;;;;2.83;0.60;;;;;;;;;;4878166;29;20057;-66
2022/09/18 09:40:22;;;;;;;2.78;0.60;;;;;;;;;;4862797;29;20449;-66
2022/09/18 09:42:50;;;;;;;4.22;1.20;;;;;;;;;;4877684;29;20053;-66
2022/09/18 09:45:29;;;;;;;2.67;0.95;;;;;;;;;;4877376;29;20049;-66
2022/09/18 09:48:19;;;;;;;4.07;0.70;;;;;;;;;;4873847;29;20054;-66
2022/09/18 09:51:02;;;;;;;2.30;0.90;;;;;;;;;;4834593;29;20537;-66
2022/09/18 09:53:34;;;;;;;5.43;1.10;;;;;;;;;;4858839;29;20049;-66
2022/09/18 09:56:28;;;;;;;4.63;1.13;;;;;;;;;;4843217;29;20057;-66
2022/09/18 09:59:04;;;;;;;5.45;0.80;;;;;;;;;;4839259;29;20060;-66
2022/09/18 10:01:53;;;;;;;2.90;1.00;;;;;;;;;;4843555;29;20058;-66
2022/09/18 10:04:24;;;;;;;1.50;0.65;;;;;;;;;;4861774;29;20094;-66
2022/09/18 10:07:03;;;;;;;3.67;0.75;;;;;;;;;;4862205;29;20053;-66
2022/09/18 10:09:49;;;;;;;2.15;0.65;;;;;;;;;;4832659;29;20045;-66
2022/09/18 10:12:27;;;;;;;4.95;0.90;;;;;;;;;;4877126;29;20094;-66
2022/09/18 10:15:18;;;;;;;2.97;1.00;;;;;;;;;;4895355;29;20060;-67
2022/09/18 10:17:51;;;;;;;3.92;1.10;;;;;;;;;;4892114;29;20073;-66
2022/09/18 10:20:27;;;;;;;1.80;0.63;;;;;;;;;;4877113;29;20068;-67
2022/09/18 10:23:21;;;;;;;2.75;0.82;;;;;;;;;;4876856;29;20102;-66
2022/09/18 10:25:59;;;;;;;4.43;0.75;;;;;;;;;;4865456;29;20064;-67
2022/09/18 10:28:31;;;;;;;3.97;0.80;;;;;;;;;;4893274;29;20063;-67
2022/09/18 10:31:11;;;;;;;3.75;1.05;;;;;;;;;;4923065;29;20072;-67
2022/09/18 10:33:50;;;;;;;2.25;0.55;;;;;;;;;;4933172;29;20058;-67
2022/09/18 10:36:42;;;;;;;3.03;0.90;;;;;;;;;;4914216;29;20106;-67
2022/09/18 10:39:28;;;;;;;2.33;0.75;;;;;;;;;;4914521;29;20056;-66
2022/09/18 10:42:05;;;;;;;1.65;0.70;;;;;;;;;;4912925;29;20056;-66
2022/09/18 10:44:39;;;;;;;;;;;;;;;;;;4883816;29;20389;-66
2022/09/18 10:47:18;;;;;;;1.98;1.00;;;;;;;;;;4895410;29;19924;-67
2022/09/18 10:50:13;;;;;;;4.22;0.32;;;;;;;;;;4868738;29;20053;-66
2022/09/18 10:52:47;;;;;;;2.72;0.80;;;;;;;;;;4869121;29;20062;-66
2022/09/18 10:55:27;;;;;;;3.83;0.40;;;;;;;;;;4821314;29;20054;-66
2022/09/18 10:58:16;;;;;;;1.05;0.17;;;;;;;;;;4857829;29;20061;-66
2022/09/18 11:01:00;;;;;;;1.65;0.22;;;;;;;;;;4886991;29;20537;-66
2022/09/18 11:03:46;;;;;;;3.53;0.95;;;;;;;;;;4866020;29;20418;-66
2022/09/18 11:06:30;;;;;;;1.65;0.60;;;;;;;;;;4876474;29;20407;-66
2022/09/18 11:09:11;;;;;;;1.50;0.43;;;;;;;;;;4882352;29;20057;-66
2022/09/18 11:11:50;;;;;;;0.77;0.30;;;;;;;;;;4913807;29;20044;-66
2022/09/18 11:14:30;;;;;;;2.67;0.75;;;;;;;;;;4936960;28;20493;-67
2022/09/18 11:17:29;;;;;;;1.75;0.43;;;;;;;;;;4951393;28;20062;-66
2022/09/18 11:20:04;;;;;;;3.10;0.70;;;;;;;;;;4951525;28;20171;-67
2022/09/18 11:22:44;;;;;;;1.23;0.35;;;;;;;;;;4951727;28;20059;-67
2022/09/18 11:25:32;;;;;;;2.63;0.40;;;;;;;;;;4959651;28;20079;-67
2022/09/18 11:28:26;;;;;;;1.48;0.50;;;;;;;;;;4934832;29;20052;-69
2022/09/18 11:31:04;;;;;;;1.23;0.47;;;;;;;;;;4918457;29;20059;-68
2022/09/18 11:33:45;;;;;;;0.80;0.30;;;;;;;;;;4931950;29;20122;-68
2022/09/18 11:36:25;;;;;;;0.60;0.30;;;;;;;;;;4932180;29;20048;-67
2022/09/18 11:39:00;;;;;;;3.40;0.90;;;;;;;;;;4934799;28;20063;-67
2022/09/18 11:41:36;;;;;;;4.38;0.63;;;;;;;;;;4927245;28;20056;-66
2022/09/18 11:44:21;;;;;;;6.63;1.77;;;;;;;;;;4881739;29;20060;-68
2022/09/18 11:46:51;;;;;;;8.27;1.63;;;;;;;;;;4913339;29;20060;-68
2022/09/18 11:49:29;;;;;;;4.00;1.20;;;;;;;;;;4948893;28;20062;-68
2022/09/18 11:52:19;;;;;;;;;;;;;;;;;;4951403;28;20511;-67
2022/09/18 11:55:12;;;;;;;2.65;0.90;;;;;;;;;;4931593;29;19922;-67
2022/09/18 11:58:03;;;;;;;1.35;0.70;;;;;;;;;;4887025;29;20043;-70
2022/09/18 12:00:46;;;;;;;4.47;1.10;;;;;;;;;;4950850;29;20054;-68
2022/09/18 12:03:37;;;;;;;1.30;0.40;;;;;;;;;;4931785;29;20058;-68
2022/09/18 12:06:32;;;;;;;3.05;0.70;;;;;;;;;;4856895;29;20065;-67
2022/09/18 12:09:16;;;;;;;3.53;0.65;;;;;;;;;;4856160;29;20062;-71
2022/09/18 12:12:03;;;;;;;4.25;2.10;;;;;;;;;;4804411;29;20058;-67
2022/09/18 12:14:57;;;;;;;5.60;0.90;;;;;;;;;;4797193;29;20054;-67
2022/09/18 12:17:37;;;;;;;1.35;0.50;;;;;;;;;;4822806;29;20167;-67
2022/09/18 12:20:24;;;;;;;2.45;0.90;;;;;;;;;;4837934;29;20064;-70
2022/09/18 12:22:57;;;;;;;2.63;0.70;;;;;;;;;;4838242;29;20170;-68
2022/09/18 12:25:39;;;;;;;1.50;0.60;;;;;;;;;;4853039;29;20054;-70
2022/09/18 12:28:34;;;;;;;1.35;0.70;;;;;;;;;;4838053;29;20427;-69
2022/09/18 12:31:11;;;;;;;2.20;0.70;;;;;;;;;;4838003;29;20186;-69
2022/09/18 12:34:08;;;;;;;1.63;0.30;;;;;;;;;;4791946;29;20419;-67
2022/09/18 12:37:06;;;;;;;1.77;0.73;;;;;;;;;;4804342;29;20058;-70
2022/09/18 12:39:38;;;;;;;2.72;0.68;;;;;;;;;;4856272;29;20065;-69
2022/09/18 12:42:38;;;;;;;1.00;0.77;;;;;;;;;;4856896;29;20072;-71
2022/09/18 12:45:22;;;;;;;1.58;0.40;;;;;;;;;;4838195;29;20389;-71
2022/09/18 12:48:31;;;;;;;1.85;0.80;;;;;;;;;;4892502;29;20604;-70
2022/09/18 12:51:07;;;;;;;1.95;0.68;;;;;;;;;;4903692;29;20047;-70
2022/09/18 12:53:59;;;;;;;3.13;0.60;;;;;;;;;;4911960;29;20048;-70
2022/09/18 12:56:50;;;;;;;2.40;0.82;;;;;;;;;;4897572;29;20067;-72
2022/09/18 12:59:40;;;;;;;1.38;0.60;;;;;;;;;;4912435;29;20056;-69
2022/09/18 13:02:40;;;;;;;1.48;0.70;;;;;;;;;;4902886;29;20052;-68
2022/09/18 13:05:38;;;;;;;1.33;0.52;;;;;;;;;;4951340;28;20062;-68
2022/09/18 13:08:24;;;;;;;0.93;0.47;;;;;;;;;;4922874;29;20751;-70
2022/09/18 13:11:06;;;;;;;2.42;0.70;;;;;;;;;;4973305;28;20423;-69
2022/09/18 13:13:58;;;;;;;3.00;0.68;;;;;;;;;;4934899;29;20056;-67
2022/09/18 13:16:41;;;;;;;2.03;0.50;;;;;;;;;;4891151;29;20389;-69
2022/09/18 13:19:29;;;;;;;2.15;0.50;;;;;;;;;;4954274;28;20059;-69
2022/09/18 13:22:06;;;;;;;2.40;0.90;;;;;;;;;;4915564;29;20048;-70
2022/09/18 13:24:40;;;;;;;4.20;1.05;;;;;;;;;;4915998;29;20068;-69
2022/09/18 13:27:14;;;;;;;3.70;0.70;;;;;;;;;;4902957;28;20064;-69
2022/09/18 13:29:55;;;;;;;1.92;0.60;;;;;;;;;;4911065;28;20084;-69
2022/09/18 13:32:32;;;;;;;0.45;0.20;;;;;;;;;;4953794;29;20058;-68
2022/09/18 13:35:22;;;;;;;1.50;0.57;;;;;;;;;;4953762;28;20067;-67
2022/09/18 13:38:08;;;;;;;1.33;0.35;;;;;;;;;;4954053;28;20047;-70
2022/09/18 13:40:47;;;;;;;2.50;0.90;;;;;;;;;;4953918;29;20047;-69
2022/09/18 13:43:27;;;;;;;1.98;0.50;;;;;;;;;;4953603;29;20055;-68
2022/09/18 13:46:02;;;;;;;1.08;0.45;;;;;;;;;;4953576;29;20047;-68
2022/09/18 13:48:47;;;;;;;1.27;0.40;;;;;;;;;;4963615;28;20058;-72
2022/09/18 13:51:24;;;;;;;2.05;0.88;;;;;;;;;;4950756;28;20054;-70
2022/09/18 13:54:16;;;;;;;4.43;0.70;;;;;;;;;;4991970;28;20062;-71
2022/09/18 13:57:09;;;;;;;2.30;0.38;;;;;;;;;;4956607;28;20439;-70
2022/09/18 14:00:07;;;;;;;2.17;0.52;;;;;;;;;;4982775;28;20584;-69
2022/09/18 14:02:40;;;;;;;1.73;0.57;;;;;;;;;;4992213;28;20050;-69
2022/09/18 14:05:37;;;;;;;2.60;0.50;;;;;;;;;;5000837;28;20053;-68
2022/09/18 14:08:12;;;;;;;0.63;0.30;;;;;;;;;;5031167;28;20053;-68
2022/09/18 14:10:48;;;;;;;1.98;0.30;;;;;;;;;;5061528;28;20056;-73
2022/09/18 14:13:54;;;;;;;1.08;0.30;;;;;;;;;;5071305;28;20052;-69
2022/09/18 14:16:42;;;;;;;0.57;0.20;;;;;;;;;;5071226;28;20045;-69
2022/09/18 14:19:31;;;;;;;0.80;0.20;;;;;;;;;;5071321;28;20144;-68
2022/09/18 14:22:02;;;;;;;0.50;0.30;;;;;;;;;;5038352;28;20052;-70
2022/09/18 14:24:50;;;;;;;0.77;0.60;;;;;;;;;;5014672;28;20434;-68
2022/09/18 14:27:44;;;;;;;4.32;0.47;;;;;;;;;;5010909;28;20058;-70
2022/09/18 14:30:20;;;;;;;0.95;0.30;;;;;;;;;;4972292;28;20058;-69
2022/09/18 14:33:02;;;;;;;1.55;0.45;;;;;;;;;;4955969;28;21173;-70
2022/09/18 14:35:56;;;;;;;2.35;0.50;;;;;;;;;;4959360;28;20057;-69
2022/09/18 14:38:33;;;;;;;2.88;0.70;;;;;;;;;;4991473;28;20062;-74
2022/09/18 14:41:18;;;;;;;0.80;0.70;;;;;;;;;;4971588;28;20063;-72
2022/09/18 14:44:01;;;;;;;0.68;0.30;;;;;;;;;;4955438;28;20415;-70
2022/09/18 14:46:32;;;;;;;1.55;0.40;;;;;;;;;;4971947;28;20452;-71
2022/09/18 14:49:02;;;;;;;1.95;0.70;;;;;;;;;;4971883;28;20058;-66
2022/09/18 14:51:32;;;;;;;2.03;0.60;;;;;;;;;;4956152;28;20062;-72
2022/09/18 14:54:22;;;;;;;2.75;0.88;;;;;;;;;;4971638;28;20427;-74
2022/09/18 14:57:00;;;;;;;1.15;0.60;;;;;;;;;;4958647;28;20608;-69
2022/09/18 14:59:31;;;;;;;2.33;0.75;;;;;;;;;;4991031;28;20057;-72
2022/09/18 15:02:21;;;;;;;1.17;0.32;;;;;;;;;;4991277;28;20054;-73
2022/09/18 15:04:52;;;;;;;2.40;0.43;;;;;;;;;;4983942;28;20054;-69
2022/09/18 15:07:22;;;;;;;1.13;0.40;;;;;;;;;;4990465;28;20046;-69
2022/09/18 15:09:58;;;;;;;2.50;0.70;;;;;;;;;;4974520;28;20081;-70
2022/09/18 15:12:31;;;;;;;2.50;0.40;;;;;;;;;;4974210;28;20058;-71
2022/09/18 15:15:26;;;;;;;3.42;0.57;;;;;;;;;;4975745;28;20058;-70
2022/09/18 15:17:56;;;;;;;2.08;0.40;;;;;;;;;;4994000;28;20053;-71
2022/09/18 15:20:28;;;;;;;2.38;0.50;;;;;;;;;;5010280;28;20447;-69
2022/09/18 15:22:59;;;;;;;0.73;0.20;;;;;;;;;;4993922;28;20434;-71
2022/09/18 15:25:32;;;;;;;2.10;0.70;;;;;;;;;;5010347;28;20061;-70
2022/09/18 15:28:06;;;;;;;1.13;0.38;;;;;;;;;;4989818;28;20054;-73
2022/09/18 15:30:37;;;;;;;1.67;0.40;;;;;;;;;;4990554;28;20046;-71
2022/09/18 15:33:18;;;;;;;0.30;0.20;;;;;;;;;;4990130;28;20042;-70
2022/09/18 15:35:52;;;;;;;2.15;1.02;;;;;;;;;;4959885;28;20514;-71
2022/09/18 15:38:23;;;;;;;;;;;;;;;;;;4990648;28;20142;-72
2022/09/18 15:40:54;;;;;;;1.60;0.50;;;;;;;;;;4990654;28;19921;-71
2022/09/18 15:43:32;;;;;;;0.52;0.30;;;;;;;;;;4990281;28;20502;-70
2022/09/18 15:46:08;;;;;;;3.03;0.60;;;;;;;;;;5026889;28;20501;-70
2022/09/18 15:48:44;;;;;;;1.13;0.50;;;;;;;;;;5029447;28;20053;-71
2022/09/18 15:51:15;;;;;;;0.68;0.30;;;;;;;;;;5029466;28;20552;-73
2022/09/18 15:54:08;;;;;;;0.90;0.40;;;;;;;;;;4976934;28;20046;-70
2022/09/18 15:56:58;;;;;;;2.53;0.50;;;;;;;;;;4989749;28;20434;-70
2022/09/18 15:59:37;;;;;;;3.42;0.40;;;;;;;;;;4989869;28;20050;-74
2022/09/18 16:02:26;;;;;;;0.43;0.22;;;;;;;;;;4974571;28;20054;-70